Terminal Aerodrome Forecast
Issued by NWS

Home | Current Version | Previous Version | Text Only | Print | Product List | Glossary On
Versions: 1 2 3 4 5 6 7 8 9 10 11 12 13 14
000
FTUS46 KPDT 261700
TAFRDM
TAF
KRDM 261720Z 2618/2718 16005KT P6SM SKC
     FM262300 29007KT P6SM SKC
     FM270300 16005KT P6SM SKC
     FM271000 16004KT 6SM BR SCT010
     FM271600 VRB04KT P6SM SCT200=

USA.gov is the U.S. government's official web portal to all federal, state and local government web resources and services.